Park City, UT (84098)

7:23 AM MDT on April 19, 2015 (GMT -0600)
MesoWest | | Change Station
CLOSE
Current Station
Personal Weather Station
Location: Park City, UT
Elevation: 6400 ft
Nearby Weather Stations

Elev 6400 ft 40.73 °N, 111.54 °W | Updated 43 minutes ago

Clear
Clear
27 °F
Feels Like 27 °F
N
0
Wind Variable Wind from North
Gusts 1.0 mph

Today
High -- | Low -- °F
--% Chance of Precip.
Yesterday
High -- | Low -- °F
Precip. -- in
6:41 AM 8:09 PM
New Moon, 1% visible
Pressure 30.13 in
Visibility 10.0 miles
Clouds Clear
Windchill 27 °F
Dew Point 22 °F
Humidity 79%
Rainfall in
Snow Depth Not available.
UV 0 out of 12
Pollen 9.70 out of 12
Air Quality Not available.
Flu Activity Local Activity
METAR K36U 191315Z AUTO 00000KT 10SM CLR 00/M02 A3013 RMK AO2

More Conditions Fewer Conditions

Pressure 30.13 in
Visibility 10.0 miles
Clouds Clear
Windchill 27 °F
Dew Point 22 °F
Humidity 79%
Rainfall in
Snow Depth Not available.
UV 0 out of 12
Pollen 9.70 out of 12
Air Quality Not available.
Flu Activity Local Activity
METAR K36U 191315Z AUTO 00000KT 10SM CLR 00/M02 A3013 RMK AO2

More Conditions Fewer Conditions

10-Day Weather Forecast

Almanac

Astronomy

Apr. 19, 2015 Rise Set
Actual Time
Civil Twilight
Nautical Twilight
Astronomical Twilight
Moon
Length of Visible Light
Length of Day
Tomorrow will be .
, % of the Moon is Illuminated

Today's Extremes

State Highs State Lows

Community

WunderPhotos

Upload Photos

1,814,791 photos uploaded!

WunderBlogs® & News

Nearby

Air Quality

  Air Quality AQ Index Pollutant
Not available.

Snow Depth

Station Depth Elevation

Earthquake Activity

City Distance Mag. Time & Date
Minimum magnitude displayed is 2.5.

Coastal Water Temperatures

Place Temperature

Stations

Nearby Weather Stations

Station Location Temp. Windchill Dew Point Humidity Wind Precip. Elev Updated Type